Tiempo atmosférico en la estación meteorológica de Liceras, Soria (1150 m.)



Fecha
DESCASC
Temp. máxima en grados centígrados (hora)
DESCASC
Temp. mínima en grados centígrados (hora)
DESCASC
Temp. media en grados centígrados
DESCASC
Racha de viento máxima en m/sg (hora)
DESCASC
Velocidad máxima media en intervalos de 10 minutos(hora)
DESCASC
Precipitaciones diarias en mm
DESCASC
Precipitaciones de 00:00 a 06:00 en mm
DESCASC
Precipitaciones de 06:00 a 12:00 en mm
DESCASC
Precipitaciones de 12:00 a 18:00 en mm
DESCASC
Precipitaciones de 18:00 a 24:00 en mm
DESCASC
26-11-2020 11.3 (12:10) 5.5 (07:40) 8.4 17.78 (00:50) 10 (01:30) 0 0 0 0 0
25-11-2020 10.3 (13:00) 0.1 (08:20) 5.2 15.56 (20:00) 8.89 (19:30) 0 0 0 0 0
24-11-2020 13.8 (11:30) 2.5 (07:50) 8.2 6.11 (14:10) 3.89 (13:20) 0 0 0 0 0
23-11-2020 15.6 (12:30) 1.4 (07:50) 8.5 4.17 (00:20) 3.61 (00:20) 0 0 0 0 0
22-11-2020 13.7 (14:40) 2.5 (00:00) 8.1 8.61 (12:30) 6.11 (13:00) 0 0 0 0 0
21-11-2020 15.1 (15:20) 0.9 (00:00) 8 8.89 (16:00) 5.28 (16:00) 0 0 0 0 0
20-11-2020 10.8 (13:30) 0.6 (00:00) 5.7 4.72 (19:30) 3.61 (19:30) 0 0 0 0 0
19-11-2020 17 (13:10) 4.6 (00:00) 10.8 5.83 (16:40) 3.89 (16:40) 0 0 0 0 0
18-11-2020 18.6 (12:10) 6.4 (00:00) 12.5 6.67 (14:00) 4.72 (14:00) 0 0 0 0 0
17-11-2020 17.1 (11:30) 3.4 (00:00) 10.3 5.56 (16:00) 3.33 (14:10) 0.2 0 0.2 0 0
16-11-2020 13.9 (13:10) 5.2 (00:00) 9.5 11.11 (00:10) 7.78 (00:10) 3.6 3.6 0 0 0
15-11-2020 15.2 (14:30) 7.1 (00:00) 11.1 15.83 (13:40) 11.39 (13:40) 0.2 0 0.2 0 0
14-11-2020 13.6 (15:10) 5.4 (00:00) 9.5 6.39 (23:00) 4.17 (23:10) 0 0 0 0 0
13-11-2020 15.9 (13:20) 6 (00:00) 10.9 9.72 (19:40) 5.28 (19:20) 0 0 0 0 0
12-11-2020 15.5 (13:30) 4.7 (00:00) 10.1 10.28 (21:00) 6.67 (21:00) 0 0 0 0 0
11-11-2020 17.2 (12:20) 3 (00:00) 10.1 8.06 (16:30) 5.56 (16:20) 0 0 0 0 0
10-11-2020 13.8 (12:00) 3.5 (00:00) 8.7 4.72 (13:20) 3.33 (13:20) 0 0 0 0 0
09-11-2020 12.7 (14:00) 4.9 (00:00) 8.8 8.61 (00:50) 5.83 (13:00) 0.2 0 0.2 0 0
08-11-2020 12.9 (14:10) 6.9 (00:00) 9.9 11.67 (12:00) 7.5 (12:10) 0 0 0 0 0
07-11-2020 11.8 (01:20) 7.6 (00:00) 9.7 10.83 (03:00) 6.39 (09:10) 10.4 4.4 0 6 0
06-11-2020 15.3 (14:10) 8.5 (00:00) 11.9 16.94 (07:10) 11.11 (07:20) 0.8 0.2 0 0 0.6
05-11-2020 10 (16:00) 4.1 (00:00) 7 15.56 (01:10) 10.83 (01:30) 5.8 0 0 0.2 5.6
04-11-2020 7.5 (12:20) 2.1 (00:00) 4.8 15.28 (23:40) 10.28 (23:50) 0.6 0 0 0 0.6
03-11-2020 12.1 (01:20) 5.3 (00:00) 8.7 9.44 (14:40) 6.67 (13:20) 3 0 1 2 0
02-11-2020 16.9 (15:10) 8.1 (00:00) 12.5 8.61 (10:30) 6.11 (10:30) 0 0 0 0 0
01-11-2020 18.5 (15:00) 6.6 (00:00) 12.5 7.22 (13:10) 4.72 (15:10) 0 0 0 0 0
31-10-2020 18.3 (12:50) 5.7 (00:00) 12 9.72 (14:50) 6.94 (14:20) 0 0 0 0 0
30-10-2020 17.8 (15:50) 4 (00:00) 10.9 5.28 (12:30) 3.61 (12:10) 0 0 0 0 0
29-10-2020 18.4 (15:10) 5.6 (00:00) 12 5.83 (09:10) 4.17 (09:10) 0 0 0 0 0
28-10-2020 14.7 (15:10) 8.7 (00:00) 11.7 11.39 (07:40) 7.78 (08:20) 0 0 0 0 0

Gráficas

Temp. máximas Temp. mínimas Temp. medias Precipitaciones Rachas de viento máximas Velocidades máximas media en intervalos de 10 minutos

Datos horarios

Fecha y hora oficial Temperatura (ºC) Velocidad del viento (km/h) Dirección del viento Racha (km/h) Dirección de racha Precipitación (mm) Presión (hPa) Tendencia (hPa) Humedad (%)
2020-11-26 23:00:00 6.9 17 Sudeste 29 Sudeste 0 -- -- 89
2020-11-26 22:00:00 7.2 14 Sudeste 35 Este 0 -- -- 89
2020-11-26 21:00:00 7.3 22 Sudeste 35 Sudeste 0 -- -- 89
2020-11-26 20:00:00 7.5 25 Sudeste 49 Sudeste 0 -- -- 89
2020-11-26 19:00:00 7.3 24 Sudeste 37 Sudeste 0 -- -- 90
2020-11-26 18:00:00 7.1 27 Sudeste 46 Sudeste 0 -- -- 90
2020-11-26 17:00:00 8.1 28 Sudeste 44 Sudeste 0 -- -- 83
2020-11-26 16:00:00 9.4 29 Sudeste 44 Sudeste 0 -- -- 76
2020-11-26 15:00:00 9 31 Sudeste 45 Sudeste 0 -- -- 78
2020-11-26 14:00:00 9.6 30 Sudeste 40 Sudeste 0 -- -- 75
2020-11-26 13:00:00 9.2 24 Sudeste 46 Sudeste 0 -- -- 78
2020-11-26 12:00:00 10.9 25 Sudeste 41 Sudeste 0 -- -- 69
2020-11-26 11:00:00 7.5 19 Este 33 Este 0 -- -- 80
2020-11-26 10:00:00 6.7 13 Este 38 Sudeste 0 -- -- 82
2020-11-26 09:00:00 5.6 29 Sudeste 41 Sudeste 0 -- -- 81
2020-11-26 08:00:00 5.5 24 Sudeste 33 Sudeste 0 -- -- 81
2020-11-26 07:00:00 5.8 21 Sudeste 35 Sur 0 -- -- 79
2020-11-26 06:00:00 6.5 21 Sudeste 33 Sudeste 0 -- -- 77
2020-11-26 05:00:00 6.3 15 Este 36 Sudeste 0 -- -- 80
2020-11-26 04:00:00 6.2 30 Sudeste 48 Sudeste 0 -- -- 81
2020-11-26 03:00:00 6.9 24 Sudeste 54 Sur 0 -- -- 80
2020-11-26 02:00:00 7 28 Sudeste 55 Sur 0 -- -- 82
2020-11-26 01:00:00 7.3 28 Sur 64 Sur 0 -- -- 81
2020-11-26 00:00:00 7.5 14 Sudeste 47 Sur 0 -- -- 80
2020-11-25 23:00:00 7.5 19 Sudeste 45 Sur 0 -- -- 81
2020-11-25 22:00:00 7.4 11 Sudeste 29 Este 0 -- -- 80
2020-11-25 21:00:00 7.6 20 Este 39 Sur 0 -- -- 76
2020-11-25 20:00:00 7.2 31 Sudeste 56 Sur 0 -- -- 77
2020-11-25 19:00:00 7.2 30 Sur 48 Sur 0 -- -- 76
2020-11-25 18:00:00 7.4 21 Sudeste 39 Sur 0 -- -- 75
2020-11-25 17:00:00 7.9 21 Sur 46 Sudeste 0 -- -- 69
2020-11-25 16:00:00 8.5 22 Sur 43 Sur 0 -- -- 67
2020-11-25 15:00:00 9.3 21 Sur 43 Sur 0 -- -- 63
2020-11-25 14:00:00 9.3 24 Sur 40 Sudeste 0 -- -- 64
2020-11-25 13:00:00 10.3 19 Sur 35 Sur 0 -- -- 57
2020-11-25 12:00:00 9.7 22 Sur 39 Sur 0 -- -- 60
2020-11-25 11:00:00 9 19 Sur 28 Sur 0 -- -- 61
2020-11-25 10:00:00 7.9 11 Sur 25 Sur 0 -- -- 67
2020-11-25 09:00:00 4.2 10 Sudeste 17 Sudeste 0 -- -- 77
2020-11-25 08:00:00 0.9 11 Sudeste 14 Sudeste 0 -- -- 88
2020-11-25 07:00:00 1.3 9 Este 13 Sur 0 -- -- 87
2020-11-25 06:00:00 1.9 7 Sudeste 12 Sur 0 -- -- 85
2020-11-25 05:00:00 1.6 0 Calma 9 Sur 0 -- -- 85
2020-11-25 04:00:00 2.5 5 Sur 13 Sur 0 -- -- 85
2020-11-25 03:00:00 2.7 8 Sur 12 Sur 0 -- -- 84
2020-11-25 02:00:00 2.1 8 Sudeste 10 Sudeste 0 -- -- 80
2020-11-25 01:00:00 2.6 5 Sudeste 10 Sur 0 -- -- 78
2020-11-25 00:00:00 3.3 7 Sudeste 11 Sur 0 -- -- 84
2020-11-24 23:00:00 3.3 3 Sudeste 9 Oeste 0 -- -- 86
2020-11-24 22:00:00 4 6 Sudoeste 13 Sur 0 -- -- 83
2020-11-24 21:00:00 3.9 2 Sudeste 12 Sudeste 0 -- -- 81
2020-11-24 20:00:00 5.3 7 Este 13 Sudeste 0 -- -- 78
2020-11-24 19:00:00 5.5 8 Sudeste 11 Sudeste 0 -- -- 79
2020-11-24 18:00:00 7.5 0 Calma 9 Norte 0 -- -- 71
2020-11-24 17:00:00 9.2 6 Nordeste 12 Oeste 0 -- -- 67
2020-11-24 16:00:00 11.5 7 Noroeste 17 Oeste 0 -- -- 52
2020-11-24 15:00:00 11.4 9 Noroeste 22 Oeste 0 -- -- 52
2020-11-24 14:00:00 12 10 Oeste 21 Noroeste 0 -- -- 52
2020-11-24 13:00:00 11.8 12 Noroeste 17 Noroeste 0 -- -- 53
2020-11-24 12:00:00 13.1 6 Oeste 14 Oeste 0 -- -- 48
2020-11-24 11:00:00 11.9 0 Calma 10 Sur 0 -- -- 54
2020-11-24 10:00:00 6.6 3 Sur 9 Sur 0 -- -- 71
2020-11-24 09:00:00 6.1 3 Sudeste 8 Sur 0 -- -- 67
2020-11-24 08:00:00 2.7 3 Sudeste 7 Sudeste 0 -- -- 79
2020-11-24 07:00:00 3.5 0 Calma 8 Este 0 -- -- 75
2020-11-24 06:00:00 3 4 Sudeste 10 Sur 0 -- -- 77
2020-11-24 05:00:00 4.3 5 Este 9 Este 0 -- -- 76
2020-11-24 04:00:00 4.2 5 Sudeste 8 Sudeste 0 -- -- 74
2020-11-24 03:00:00 4.6 3 Sudeste 9 Sur 0 -- -- 70
2020-11-24 02:00:00 4.4 4 Sur 15 Sur 0 -- -- 72
2020-11-24 01:00:00 6.4 13 Sur 17 Sur 0 -- -- 66
2020-11-24 00:00:00 6.3 0 Calma 9 Este 0 -- -- 67
2020-11-23 23:00:00 6.3 4 Este 9 Este 0 -- -- 70
2020-11-23 22:00:00 6 0 Calma 9 Este 0 -- -- 76
2020-11-23 21:00:00 5.8 7 Sudeste 10 Sudeste 0 -- -- 78
2020-11-23 20:00:00 6.3 6 Sudeste 13 Sur 0 -- -- 74
2020-11-23 19:00:00 7.5 10 Sudeste 11 Sudeste 0 -- -- 69
2020-11-23 18:00:00 9.5 0 Calma 5 Norte 0 -- -- 59
2020-11-23 17:00:00 12.1 3 Norte 9 Norte 0 -- -- 56
2020-11-23 16:00:00 13.3 5 Noroeste 9 Norte 0 -- -- 48
2020-11-23 15:00:00 13.5 6 Noroeste 12 Noroeste 0 -- -- 47
2020-11-23 14:00:00 13.9 5 Norte 10 Norte 0 -- -- 44
2020-11-23 13:00:00 14.5 3 Noroeste 6 Norte 0 -- -- 42
2020-11-23 12:00:00 14 2 Norte 4 Norte 0 -- -- 43
2020-11-23 11:00:00 14.1 0 Calma 7 Este 0 -- -- 46
2020-11-23 10:00:00 9.6 3 Este 6 Este 0 -- -- 56
2020-11-23 09:00:00 5.4 0 Calma 6 Oeste 0 -- -- 68
2020-11-23 08:00:00 1.8 0 Calma 6 Sudeste 0 -- -- 80
2020-11-23 07:00:00 2.4 0 Calma 11 Sur 0 -- -- 76
2020-11-23 06:00:00 2.6 2 Este 6 Sur 0 -- -- 75
2020-11-23 05:00:00 3.1 3 Sudeste 5 Sudeste 0 -- -- 73
2020-11-23 04:00:00 3.1 2 Este 5 Sudeste 0 -- -- 74
2020-11-23 03:00:00 4.3 3 Sudeste 5 Sudeste 0 -- -- 68
2020-11-23 02:00:00 4.3 3 Sudeste 11 Sur 0 -- -- 68
2020-11-23 01:00:00 4.1 10 Sur 15 Sur 0 -- -- 71
2020-11-23 00:00:00 3.2 10 Sur 12 Sur 0 -- -- 76
2020-11-22 23:00:00 3.6 4 Sudeste 10 Sur 0 -- -- 75
2020-11-22 22:00:00 4.2 4 Sudeste 9 Sudeste 0 -- -- 74
2020-11-22 21:00:00 5.2 2 Este 3 Sudeste 0 -- -- 70
2020-11-22 20:00:00 5.6 2 Noroeste 3 Noroeste 0 -- -- 70
2020-11-22 19:00:00 6.6 2 Noroeste 7 Noroeste 0 -- -- 68
2020-11-22 18:00:00 7.4 6 Noroeste 15 Oeste 0 -- -- 65
2020-11-22 17:00:00 12.2 11 Oeste 26 Oeste 0 -- -- 41
2020-11-22 16:00:00 13.2 18 Oeste 25 Oeste 0 -- -- 38
2020-11-22 15:00:00 13.4 18 Oeste 24 Oeste 0 -- -- 39
2020-11-22 14:00:00 13.5 17 Oeste 27 Oeste 0 -- -- 40
2020-11-22 13:00:00 13.2 22 Oeste 31 Oeste 0 -- -- 39
2020-11-22 12:00:00 12.6 18 Oeste 25 Oeste 0 -- -- 46
2020-11-22 11:00:00 11.2 7 Oeste 13 Oeste 0 -- -- 49
2020-11-22 10:00:00 10.4 0 Calma 5 Sudeste 0 -- -- 51
2020-11-22 09:00:00 5.8 3 Este 8 Este 0 -- -- 56
2020-11-22 08:00:00 2.8 2 Este 9 Sur 0 -- -- 63
2020-11-22 07:00:00 2.5 0 Calma 4 Sur 0 -- -- 63
2020-11-22 06:00:00 3.9 2 Sudeste 7 Este 0 -- -- 58
2020-11-22 05:00:00 3.1 2 Este 12 Sur 0 -- -- 60
2020-11-22 04:00:00 4.2 5 Sur 8 Sur 0 -- -- 56
2020-11-22 03:00:00 5 6 Sudeste 8 Este 0 -- -- 51
2020-11-22 02:00:00 4.3 5 Este 8 Este 0 -- -- 54
2020-11-22 01:00:00 4.8 2 Oeste 20 Sur 0 -- -- 50
2020-11-22 00:00:00 6.8 15 Sudoeste 21 Sur 0 -- -- 44
2020-11-21 23:00:00 6.3 7 Sudeste 13 Sur 0 -- -- 43
2020-11-21 22:00:00 5.1 10 Sudeste 15 Este 0 -- -- 50
2020-11-21 21:00:00 7.4 10 Sudeste 18 Sudeste 0 -- -- 44
2020-11-21 20:00:00 9.5 13 Sur 22 Sur 0 -- -- 38
2020-11-21 19:00:00 6.5 8 Sudeste 19 Sudeste 0 -- -- 52
2020-11-21 18:00:00 9.2 17 Sudeste 23 Sudeste 0 -- -- 45
2020-11-21 17:00:00 12.4 16 Sudeste 24 Este 0 -- -- 37
2020-11-21 16:00:00 14.3 19 Este 32 Este 0 -- -- 32
2020-11-21 15:00:00 14.7 12 Nordeste 21 Nordeste 0 -- -- 34
2020-11-21 14:00:00 13.8 12 Nordeste 22 Nordeste 0 -- -- 41
2020-11-21 13:00:00 13.8 14 Nordeste 21 Este 0 -- -- 39
2020-11-21 12:00:00 13.3 14 Este 20 Este 0 -- -- 26
2020-11-21 11:00:00 11.7 15 Este 20 Este 0 -- -- 28
2020-11-21 10:00:00 8.9 6 Este 13 Este 0 -- -- 50
2020-11-21 09:00:00 4.3 12 Este 16 Este 0 -- -- 57
2020-11-21 08:00:00 1.6 12 Este 19 Este 0 -- -- 61
2020-11-21 07:00:00 3.3 6 Este 12 Este 0 -- -- 51
2020-11-21 06:00:00 2.9 0 Calma 14 Este 0 -- -- 56
2020-11-21 05:00:00 3.8 12 Este 13 Este 0 -- -- 56
2020-11-21 04:00:00 4 6 Este 13 Este 0 -- -- 65
2020-11-21 03:00:00 5 6 Sudeste 9 Este 0 -- -- 63
2020-11-21 02:00:00 3.9 3 Este 10 Sudeste 0 -- -- 74
2020-11-21 01:00:00 3.1 5 Este 9 Este 0 -- -- 80
2020-11-21 00:00:00 3.5 6 Este 8 Este 0 -- -- 77
2020-11-20 23:00:00 3.8 2 Este 4 Este 0 -- -- 78
2020-11-20 22:00:00 4.2 2 Oeste 10 Oeste 0 -- -- 78
2020-11-20 21:00:00 5.1 0 Calma 13 Oeste 0 -- -- 75
2020-11-20 20:00:00 4.8 3 Oeste 17 Sudoeste 0 -- -- 75
2020-11-20 19:00:00 5.9 12 Sudoeste 16 Oeste 0 -- -- 72
2020-11-20 18:00:00 6.4 9 Oeste 16 Oeste 0 -- -- 66
2020-11-20 17:00:00 9.6 9 Oeste 14 Oeste 0 -- -- 54
2020-11-20 16:00:00 10.6 9 Oeste 15 Oeste 0 -- -- 52
2020-11-20 15:00:00 10.6 6 Noroeste 10 Noroeste 0 -- -- 43
2020-11-20 14:00:00 10.1 4 Noroeste 13 Noroeste 0 -- -- 49
2020-11-20 13:00:00 10.4 5 Noroeste 12 Noroeste 0 -- -- 46
2020-11-20 12:00:00 10.4 7 Oeste 15 Oeste 0 -- -- 44
2020-11-20 11:00:00 8.7 8 Noroeste 12 Noroeste 0 -- -- 59
2020-11-20 10:00:00 8.6 0 Calma 8 Sur 0 -- -- 72
2020-11-20 09:00:00 3.5 6 Sudoeste 15 Sudoeste 0 -- -- 96
2020-11-20 08:00:00 0.9 5 Sudoeste 8 Sudoeste 0 -- -- 97
2020-11-20 07:00:00 1 0 Calma 15 Sudoeste 0 -- -- 97
2020-11-20 06:00:00 1.5 6 Sudoeste 9 Sudoeste 0 -- -- 97
2020-11-20 05:00:00 1.6 3 Oeste 12 Sudoeste 0 -- -- 96
2020-11-20 04:00:00 2.8 6 Sudoeste 13 Oeste 0 -- -- 97
2020-11-20 03:00:00 2.6 4 Oeste 13 Sudoeste 0 -- -- 95
2020-11-20 02:00:00 3.5 9 Oeste 12 Sudoeste 0 -- -- 96
2020-11-20 01:00:00 4 8 Oeste 17 Sudoeste 0 -- -- 96
2020-11-20 00:00:00 4.9 12 Sudoeste 17 Sudoeste 0 -- -- 94
2020-11-19 23:00:00 5.5 10 Oeste 12 Oeste 0 -- -- 92
2020-11-19 22:00:00 6.3 6 Oeste 8 Oeste 0 -- -- 87
2020-11-19 21:00:00 8.1 3 Sudeste 11 Norte 0 -- -- 81
2020-11-19 20:00:00 8.9 10 Norte 19 Norte 0 -- -- 79
2020-11-19 19:00:00 10.2 10 Noroeste 17 Oeste 0 -- -- 78
2020-11-19 18:00:00 11.5 13 Noroeste 18 Noroeste 0 -- -- 78
2020-11-19 17:00:00 13.7 14 Noroeste 21 Noroeste 0 -- -- 67
2020-11-19 16:00:00 15.3 7 Noroeste 14 Oeste 0 -- -- 60
2020-11-19 15:00:00 15.4 7 Norte 16 Noroeste 0 -- -- 62
2020-11-19 14:00:00 15.3 7 Norte 15 Norte 0 -- -- 60
2020-11-19 13:00:00 16.5 3 Norte 10 Sur 0 -- -- 59
2020-11-19 12:00:00 15.8 5 Sur 13 Noroeste 0 -- -- 63
2020-11-19 11:00:00 13.6 6 Noroeste 10 Noroeste 0 -- -- 70
2020-11-19 10:00:00 12.7 4 Oeste 8 Norte 0 -- -- 70
2020-11-19 09:00:00 9.3 3 Noroeste 11 Oeste 0 -- -- 75
2020-11-19 08:00:00 8.3 7 Oeste 17 Sudoeste 0 -- -- 77
2020-11-19 07:00:00 8.4 12 Sudoeste 16 Oeste 0 -- -- 74
2020-11-19 06:00:00 8.8 12 Oeste 16 Oeste 0 -- -- 71
2020-11-19 05:00:00 9.4 12 Oeste 15 Oeste 0 -- -- 67
2020-11-19 04:00:00 9.2 12 Oeste 20 Oeste 0 -- -- 67
2020-11-19 03:00:00 9.1 9 Oeste 13 Oeste 0 -- -- 68
2020-11-19 02:00:00 8.6 8 Oeste 12 Oeste 0 -- -- 71
2020-11-19 01:00:00 9.5 0 Calma 5 Oeste 0 -- -- 67
2020-11-19 00:00:00 9.4 3 Sudeste 12 Sur 0 -- -- 70
2020-11-18 23:00:00 8.6 10 Sur 12 Sur 0 -- -- 75
2020-11-18 22:00:00 8.4 0 Calma 3 Noroeste 0 -- -- 74
2020-11-18 21:00:00 9.5 0 Calma 8 Este 0 -- -- 67
2020-11-18 20:00:00 10 5 Sudeste 9 Sur 0 -- -- 68
2020-11-18 19:00:00 11.7 3 Sudeste 5 Sur 0 -- -- 67
2020-11-18 18:00:00 12.8 3 Noroeste 8 Noroeste 0 -- -- 68
2020-11-18 17:00:00 16.6 8 Oeste 17 Oeste 0 -- -- 49
2020-11-18 16:00:00 17.7 12 Oeste 22 Oeste 0 -- -- 45
2020-11-18 15:00:00 18 13 Oeste 24 Oeste 0 -- -- 43
2020-11-18 14:00:00 17.6 17 Oeste 24 Oeste 0 -- -- 45
2020-11-18 13:00:00 17.3 8 Noroeste 15 Noroeste 0 -- -- 49
2020-11-18 12:00:00 17.8 2 Noroeste 6 Norte 0 -- -- 46
2020-11-18 11:00:00 17.3 3 Noroeste 5 Noroeste 0 -- -- 45
2020-11-18 10:00:00 14.7 2 Sudeste 8 Sudeste 0 -- -- 52
2020-11-18 09:00:00 9.1 2 Sudeste 6 Nordeste 0 -- -- 67
2020-11-18 08:00:00 6.7 0 Calma 6 Sudeste 0 -- -- 74
2020-11-18 07:00:00 7.4 3 Sudeste 19 Oeste 0 -- -- 71
2020-11-18 06:00:00 9.2 9 Oeste 15 Oeste 0 -- -- 65
2020-11-18 05:00:00 9 8 Sudoeste 16 Oeste 0 -- -- 66
2020-11-18 04:00:00 8.8 6 Sudoeste 13 Sur 0 -- -- 67
2020-11-18 03:00:00 8.2 9 Sur 12 Sur 0 -- -- 74
2020-11-18 02:00:00 9.4 8 Sur 13 Sur 0 -- -- 68
2020-11-18 01:00:00 8.7 10 Sur 14 Sudeste 0 -- -- 71
2020-11-18 00:00:00 8.5 6 Sudeste 11 Sudeste 0 -- -- 70
2020-11-17 23:00:00 6.8 7 Sudeste 12 Este 0 -- -- 85
2020-11-17 22:00:00 9 5 Sudeste 12 Este 0 -- -- 80
2020-11-17 21:00:00 8.6 8 Sudeste 12 Sur 0 -- -- 79
2020-11-17 20:00:00 9.1 9 Sur 12 Sur 0 -- -- 71
2020-11-17 19:00:00 10.4 10 Sur 11 Sur 0 -- -- 66
2020-11-17 18:00:00 13.2 2 Este 6 Norte 0 -- -- 56
2020-11-17 17:00:00 15.9 3 Norte 14 Oeste 0 -- -- 46
2020-11-17 16:00:00 16.6 10 Noroeste 20 Noroeste 0 -- -- 41
2020-11-17 15:00:00 16.9 9 Noroeste 17 Noroeste 0 -- -- 35
2020-11-17 14:00:00 16.3 11 Noroeste 18 Noroeste 0 -- -- 42
2020-11-17 13:00:00 16.3 10 Noroeste 18 Noroeste 0 -- -- 48
2020-11-17 12:00:00 16.5 6 Oeste 10 Oeste 0 -- -- 42
2020-11-17 11:00:00 14.8 0 Calma 6 Este 0 -- -- 60
2020-11-17 10:00:00 10.6 4 Sudeste 6 Sudeste 0 -- -- 79
2020-11-17 09:00:00 6.8 6 Este 9 Sur 0 -- -- 83
2020-11-17 08:00:00 3.8 0 Calma 9 Este 0 -- -- 89
2020-11-17 07:00:00 5.2 3 Sudeste 9 Sur 0.2 -- -- 84
2020-11-17 06:00:00 4.5 5 Sur 9 Sur 0 -- -- 88
2020-11-17 05:00:00 4.5 0 Calma 7 Sudeste 0 -- -- 87
2020-11-17 04:00:00 4.2 0 Calma 9 Este 0 -- -- 94
2020-11-17 03:00:00 4.8 4 Este 7 Sudeste 0 -- -- 94
2020-11-17 02:00:00 4.8 4 Sudeste 9 Sur 0 -- -- 96
2020-11-17 01:00:00 5.9 7 Sudeste 9 Sudeste 0 -- -- 95
2020-11-17 00:00:00 5.2 7 Este 11 Sur 0 -- -- 93
2020-11-16 23:00:00 7 4 Sudeste 10 Sur 0 -- -- 94
2020-11-16 22:00:00 6.9 8 Sur 12 Sur 0 -- -- 93
2020-11-16 21:00:00 7.5 4 Sudeste 10 Oeste 0 -- -- 91
2020-11-16 20:00:00 8 8 Sudoeste 11 Sudoeste 0 -- -- 91
2020-11-16 19:00:00 8.2 3 Oeste 9 Noroeste 0 -- -- 89
2020-11-16 18:00:00 10.1 9 Noroeste 21 Noroeste 0 -- -- 84
2020-11-16 17:00:00 11.9 13 Noroeste 24 Oeste 0 -- -- 75
2020-11-16 16:00:00 12.6 18 Oeste 30 Noroeste 0 -- -- 72
2020-11-16 15:00:00 13.8 16 Oeste 27 Oeste 0 -- -- 69
2020-11-16 14:00:00 13.5 17 Oeste 26 Oeste 0 -- -- 69
2020-11-16 13:00:00 13.8 16 Oeste 24 Oeste 0 -- -- 72
2020-11-16 12:00:00 11.8 15 Oeste 28 Oeste 0 -- -- 81
2020-11-16 11:00:00 11.3 17 Noroeste 26 Oeste 0 -- -- 90
2020-11-16 10:00:00 10.1 18 Oeste 27 Oeste 0 -- -- 97
2020-11-16 09:00:00 9.6 16 Oeste 20 Oeste 0 -- -- 97
2020-11-16 08:00:00 9.9 12 Oeste 21 Oeste 0 -- -- 97
2020-11-16 07:00:00 9.9 12 Oeste 26 Noroeste 0 -- -- 97
2020-11-16 06:00:00 10.2 19 Noroeste 29 Oeste 0 -- -- 97
2020-11-16 05:00:00 10.5 21 Noroeste 29 Noroeste 0.4 -- -- 97
2020-11-16 04:00:00 10.9 17 Oeste 31 Oeste 0.6 -- -- 97
2020-11-16 03:00:00 11.1 22 Oeste 36 Sudoeste 2 -- -- 96
2020-11-16 02:00:00 11.2 19 Oeste 32 Oeste 0.4 -- -- 95
2020-11-16 01:00:00 11.4 19 Oeste 40 Sudoeste 0.2 -- -- 94
2020-11-16 00:00:00 12 30 Oeste 48 Oeste 0 -- -- 89
2020-11-15 23:00:00 12.4 24 Sudoeste 39 Oeste 0 -- -- 86
2020-11-15 22:00:00 12.6 24 Oeste 41 Oeste 0 -- -- 84
2020-11-15 21:00:00 13.1 26 Oeste 42 Sudoeste 0 -- -- 81
2020-11-15 20:00:00 13.2 29 Oeste 45 Oeste 0 -- -- 80
2020-11-15 19:00:00 13.4 23 Oeste 36 Oeste 0 -- -- 79
2020-11-15 18:00:00 13.8 27 Oeste 51 Sudoeste 0 -- -- 78
2020-11-15 17:00:00 14.4 32 Oeste 49 Oeste 0 -- -- 74
2020-11-15 16:00:00 14.8 34 Oeste 54 Oeste 0 -- -- 73
2020-11-15 15:00:00 15 31 Oeste 51 Sudoeste 0 -- -- 73
2020-11-15 14:00:00 14.7 37 Oeste 57 Oeste 0 -- -- 74
2020-11-15 13:00:00 14.4 27 Oeste 46 Sudoeste 0 -- -- 76
2020-11-15 12:00:00 14.1 22 Oeste 40 Oeste 0 -- -- 76
2020-11-15 11:00:00 14.1 27 Sudoeste 44 Sudoeste 0 -- -- 75
2020-11-15 10:00:00 12.6 16 Oeste 33 Oeste 0.2 -- -- 83
2020-11-15 09:00:00 13.3 24 Oeste 38 Oeste 0 -- -- 75
2020-11-15 08:00:00 12.7 24 Sudoeste 39 Oeste 0 -- -- 76
2020-11-15 07:00:00 10.6 5 Sur 17 Oeste 0 -- -- 82
2020-11-15 06:00:00 10.8 9 Sudoeste 17 Oeste 0 -- -- 81
2020-11-15 05:00:00 9.5 8 Oeste 12 Oeste 0 -- -- 83
2020-11-15 04:00:00 8.3 5 Sur 10 Sudeste 0 -- -- 86
2020-11-15 03:00:00 7.8 4 Sudeste 17 Sur 0 -- -- 90
2020-11-15 02:00:00 8.7 6 Sur 17 Oeste 0 -- -- 91
2020-11-15 01:00:00 9.9 12 Oeste 19 Oeste 0 -- -- 91
2020-11-15 00:00:00 10.1 11 Oeste 21 Oeste 0 -- -- 90
2020-11-14 23:00:00 10.4 12 Oeste 23 Sudoeste 0 -- -- 86
2020-11-14 22:00:00 9.8 5 Sur 14 Sudoeste 0 -- -- 83
2020-11-14 21:00:00 10.1 6 Sur 11 Sudeste 0 -- -- 82
2020-11-14 20:00:00 9.4 6 Sudeste 11 Sur 0 -- -- 87
2020-11-14 19:00:00 8.7 4 Sudeste 13 Sudeste 0 -- -- 86
2020-11-14 18:00:00 10.3 4 Sudoeste 11 Noroeste 0 -- -- 85
2020-11-14 17:00:00 11.5 8 Noroeste 13 Norte 0 -- -- 83
2020-11-14 16:00:00 12.8 0 Calma 7 Nordeste 0 -- -- 71
2020-11-14 15:00:00 13.3 3 Sudeste 9 Sudeste 0 -- -- 71
2020-11-14 14:00:00 12.5 3 Nordeste 5 Nordeste 0 -- -- 71
2020-11-14 13:00:00 12.5 3 Sur 8 Sur 0 -- -- 69
2020-11-14 12:00:00 11.9 4 Sudeste 8 Este 0 -- -- 72
2020-11-14 11:00:00 10.7 3 Este 5 Sur 0 -- -- 77
2020-11-14 10:00:00 10 4 Este 6 Este 0 -- -- 79
2020-11-14 09:00:00 7.5 4 Sudeste 8 Sudeste 0 -- -- 83
2020-11-14 08:00:00 6.7 5 Este 8 Este 0 -- -- 85
2020-11-14 07:00:00 5.8 5 Sudeste 6 Sudeste 0 -- -- 86
2020-11-14 06:00:00 6.2 3 Este 7 Este 0 -- -- 84
2020-11-14 05:00:00 5.6 4 Sudeste 10 Este 0 -- -- 84
2020-11-14 04:00:00 5.9 4 Este 6 Este 0 -- -- 80
2020-11-14 03:00:00 6.8 0 Calma 12 Sudoeste 0 -- -- 74
2020-11-14 02:00:00 7.8 10 Sudoeste 14 Sudoeste 0 -- -- 67
2020-11-14 01:00:00 9.7 8 Sur 18 Sudeste 0 -- -- 68
2020-11-14 00:00:00 9.3 8 Sur 18 Sur 0 -- -- 64
2020-11-13 23:00:00 8.8 9 Sur 17 Sur 0 -- -- 67
2020-11-13 22:00:00 8.4 10 Sur 19 Sur 0 -- -- 70
2020-11-13 21:00:00 9 8 Sur 20 Sur 0 -- -- 72
2020-11-13 20:00:00 9.5 10 Sur 35 Sudeste 0 -- -- 73
2020-11-13 19:00:00 9.7 11 Sur 23 Sur 0 -- -- 74
2020-11-13 18:00:00 10.2 9 Sur 15 Sur 0 -- -- 73
2020-11-13 17:00:00 13.1 11 Sur 15 Sur 0 -- -- 59
2020-11-13 16:00:00 14.9 2 Sudoeste 11 Sudeste 0 -- -- 54
2020-11-13 15:00:00 14.6 4 Sudoeste 9 Sur 0 -- -- 53
2020-11-13 14:00:00 13.9 4 Noroeste 13 Sur 0 -- -- 57
2020-11-13 13:00:00 14 3 Nordeste 7 Sudeste 0 -- -- 51
2020-11-13 12:00:00 14.5 0 Calma 6 Noroeste 0 -- -- 53
2020-11-13 11:00:00 14.2 3 Noroeste 7 Sur 0 -- -- 54
2020-11-13 10:00:00 13.4 2 Sudeste 7 Sur 0 -- -- 60
2020-11-13 09:00:00 6.9 0 Calma 4 Sudeste 0 -- -- 81
2020-11-13 08:00:00 6.9 4 Sudeste 8 Este 0 -- -- 80
2020-11-13 07:00:00 6.4 4 Este 8 Sudeste 0 -- -- 81
2020-11-13 06:00:00 6.4 5 Este 15 Sur 0 -- -- 79
2020-11-13 05:00:00 8.9 11 Sur 19 Sur 0 -- -- 69
2020-11-13 04:00:00 8.5 7 Sur 15 Sur 0 -- -- 70
2020-11-13 03:00:00 8.6 8 Sudoeste 20 Sur 0 -- -- 67
2020-11-13 02:00:00 9.3 9 Sudoeste 21 Sudoeste 0 -- -- 61
2020-11-13 01:00:00 9.6 12 Sudeste 19 Sudeste 0 -- -- 62
2020-11-13 00:00:00 9.7 9 Sudeste 19 Sur 0 -- -- 56
2020-11-12 23:00:00 10.8 7 Sur 21 Sur 0 -- -- 43
2020-11-12 22:00:00 10.8 10 Sur 35 Sur 0 -- -- 44
2020-11-12 21:00:00 11.2 24 Sur 37 Sur 0 -- -- 36
2020-11-12 20:00:00 9.8 11 Sudeste 19 Sudeste 0 -- -- 44
2020-11-12 19:00:00 7.9 9 Sudeste 19 Sudeste 0 -- -- 60
2020-11-12 18:00:00 9.6 13 Sudeste 17 Sudeste 0 -- -- 70
2020-11-12 17:00:00 11.8 10 Sudeste 16 Este 0 -- -- 70
2020-11-12 16:00:00 13.5 10 Este 19 Este 0 -- -- 54
2020-11-12 15:00:00 14.3 7 Este 11 Este 0 -- -- 45
2020-11-12 14:00:00 14.7 3 Norte 8 Este 0 -- -- 48
2020-11-12 13:00:00 14 0 Calma 5 Este 0 -- -- 56
2020-11-12 12:00:00 13.1 2 Este 5 Este 0 -- -- 60
2020-11-12 11:00:00 10.8 2 Este 8 Este 0 -- -- 71
2020-11-12 10:00:00 9.2 0 Calma 4 Sudeste 0 -- -- 78
2020-11-12 09:00:00 5.9 4 Sudeste 8 Sudeste 0 -- -- 87
2020-11-12 08:00:00 5.3 4 Este 8 Sudeste 0 -- -- 85
2020-11-12 07:00:00 5.3 5 Este 9 Sudeste 0 -- -- 85
2020-11-12 06:00:00 5.6 2 Sudeste 5 Este 0 -- -- 85
2020-11-12 05:00:00 5.9 3 Sudeste 7 Este 0 -- -- 84
2020-11-12 04:00:00 6.3 4 Este 6 Nordeste 0 -- -- 84
2020-11-12 03:00:00 6.4 3 Sudeste 8 Este 0 -- -- 84
2020-11-12 02:00:00 6.5 6 Sur 13 Sur 0 -- -- 82
2020-11-12 01:00:00 5.8 7 Este 14 Sur 0 -- -- 86
2020-11-12 00:00:00 5.9 0 Calma 12 Sur 0 -- -- 83
2020-11-11 23:00:00 6.5 9 Sur 13 Sur 0 -- -- 80
2020-11-11 22:00:00 6.5 9 Sur 12 Sur 0 -- -- 79
2020-11-11 21:00:00 6.1 0 Calma 6 Sudeste 0 -- -- 84
2020-11-11 20:00:00 7 5 Sudeste 7 Sur 0 -- -- 86
2020-11-11 19:00:00 7.7 4 Oeste 6 Oeste 0 -- -- 87
2020-11-11 18:00:00 9.5 9 Noroeste 19 Noroeste 0 -- -- 78
2020-11-11 17:00:00 12.2 14 Oeste 29 Oeste 0 -- -- 54
2020-11-11 16:00:00 13.9 18 Oeste 26 Noroeste 0 -- -- 45
2020-11-11 15:00:00 14.9 10 Oeste 17 Noroeste 0 -- -- 47
2020-11-11 14:00:00 14.7 12 Oeste 19 Noroeste 0 -- -- 45
2020-11-11 13:00:00 15.7 4 Norte 14 Noroeste 0 -- -- 48
2020-11-11 12:00:00 15.6 3 Oeste 12 Oeste 0 -- -- 43
2020-11-11 11:00:00 14.2 10 Sudoeste 21 Sur 0 -- -- 54
2020-11-11 10:00:00 11.5 11 Sur 23 Sur 0 -- -- 64
2020-11-11 09:00:00 9.2 14 Sur 26 Sur 0 -- -- 69
2020-11-11 08:00:00 7.4 11 Sur 22 Sur 0 -- -- 74
2020-11-11 07:00:00 7.3 15 Sur 24 Sur 0 -- -- 76
2020-11-11 06:00:00 7.4 13 Sur 22 Sur 0 -- -- 77
2020-11-11 05:00:00 7 12 Sur 22 Sur 0 -- -- 81
2020-11-11 04:00:00 5.2 10 Sudeste 17 Sudeste 0 -- -- 94
2020-11-11 03:00:00 3.2 9 Este 13 Este 0 -- -- 93
2020-11-11 02:00:00 4.5 4 Sudeste 12 Este 0 -- -- 91
2020-11-11 01:00:00 3.1 7 Este 11 Este 0 -- -- 93
2020-11-11 00:00:00 3.5 4 Sudeste 12 Este 0 -- -- 93
2020-11-10 23:00:00 4 4 Este 8 Sudeste 0 -- -- 91
2020-11-10 22:00:00 5 4 Sudeste 8 Sudeste 0 -- -- 88
2020-11-10 21:00:00 5.6 3 Este 8 Este 0 -- -- 86
2020-11-10 20:00:00 6.4 6 Este 9 Sudeste 0 -- -- 85
2020-11-10 19:00:00 8.7 0 Calma 6 Noroeste 0 -- -- 76
2020-11-10 18:00:00 9.1 6 Noroeste 8 Noroeste 0 -- -- 77
2020-11-10 17:00:00 11.9 5 Noroeste 9 Oeste 0 -- -- 62
2020-11-10 16:00:00 12.3 4 Noroeste 12 Noroeste 0 -- -- 62
2020-11-10 15:00:00 11.8 5 Norte 16 Norte 0 -- -- 64
2020-11-10 14:00:00 11.7 6 Noroeste 17 Noroeste 0 -- -- 67
2020-11-10 13:00:00 12.5 9 Noroeste 16 Oeste 0 -- -- 65
2020-11-10 12:00:00 13.8 5 Sudoeste 12 Sudoeste 0 -- -- 61
2020-11-10 11:00:00 9.6 4 Noroeste 8 Noroeste 0 -- -- 79
2020-11-10 10:00:00 8 3 Sudoeste 5 Sur 0 -- -- 94
2020-11-10 09:00:00 6.8 3 Sudoeste 5 Oeste 0 -- -- 96
2020-11-10 08:00:00 5.5 0 Calma 5 Noroeste 0 -- -- 96
2020-11-10 07:00:00 5.4 0 Calma 3 Este 0 -- -- 96
2020-11-10 06:00:00 5.8 0 Calma 12 Oeste 0 -- -- 95
2020-11-10 05:00:00 6.2 8 Oeste 12 Oeste 0 -- -- 95
2020-11-10 04:00:00 5.5 8 Sudoeste 11 Sudoeste 0 -- -- 96
2020-11-10 03:00:00 5.2 6 Sudoeste 11 Oeste 0 -- -- 96
2020-11-10 02:00:00 3.5 0 Calma 4 Oeste 0 -- -- 96
2020-11-10 01:00:00 4.7 0 Calma 8 Sur 0 -- -- 94
2020-11-10 00:00:00 4.9 2 Este 10 Sur 0 -- -- 93
2020-11-09 23:00:00 5.9 9 Sur 10 Sur 0 -- -- 92
2020-11-09 22:00:00 6.3 7 Sudoeste 9 Sudoeste 0 -- -- 91
2020-11-09 21:00:00 6.8 0 Calma 6 Sudoeste 0 -- -- 91
2020-11-09 20:00:00 7 3 Oeste 5 Oeste 0 -- -- 90
2020-11-09 19:00:00 7.6 5 Oeste 9 Oeste 0 -- -- 87
2020-11-09 18:00:00 8.5 8 Noroeste 18 Noroeste 0 -- -- 81
2020-11-09 17:00:00 11 10 Oeste 22 Oeste 0 -- -- 72
2020-11-09 16:00:00 11.7 15 Oeste 29 Oeste 0 -- -- 70
2020-11-09 15:00:00 11.9 16 Oeste 28 Oeste 0 -- -- 70
2020-11-09 14:00:00 12.7 16 Oeste 29 Oeste 0 -- -- 70
2020-11-09 13:00:00 11.9 21 Oeste 27 Oeste 0 -- -- 69
2020-11-09 12:00:00 10.5 12 Oeste 26 Oeste 0 -- -- 81
2020-11-09 11:00:00 9.6 10 Oeste 21 Oeste 0 -- -- 87
2020-11-09 10:00:00 10.8 13 Oeste 19 Oeste 0 -- -- 81
2020-11-09 09:00:00 8.9 9 Oeste 14 Oeste 0 -- -- 86
2020-11-09 08:00:00 8.1 6 Oeste 18 Sudoeste 0.2 -- -- 88
2020-11-09 07:00:00 8.5 9 Sudeste 12 Sudeste 0 -- -- 86
2020-11-09 06:00:00 9 3 Sudoeste 8 Sur 0 -- -- 80
2020-11-09 05:00:00 9.7 5 Sur 21 Sur 0 -- -- 76
2020-11-09 04:00:00 9.6 11 Sur 21 Sudeste 0 -- -- 78
2020-11-09 03:00:00 9.4 8 Sudeste 18 Sudoeste 0 -- -- 78
2020-11-09 02:00:00 9.6 10 Sur 30 Sur 0 -- -- 77
2020-11-09 01:00:00 9.5 15 Sur 31 Sur 0 -- -- 80
2020-11-09 00:00:00 9.4 19 Sur 29 Sur 0 -- -- 79
2020-11-08 23:00:00 9.3 10 Sur 25 Sudeste 0 -- -- 77
2020-11-08 22:00:00 9.2 14 Sur 26 Sur 0 -- -- 77
2020-11-08 21:00:00 9 14 Sur 35 Sur 0 -- -- 76
2020-11-08 20:00:00 9 15 Sur 35 Sudeste 0 -- -- 77
2020-11-08 19:00:00 9.3 21 Sur 35 Sur 0 -- -- 75
2020-11-08 18:00:00 9.4 21 Sur 35 Sur 0 -- -- 75
2020-11-08 17:00:00 10.8 19 Sur 40 Sur 0 -- -- 71
2020-11-08 16:00:00 12.4 19 Sur 35 Sur 0 -- -- 64
2020-11-08 15:00:00 12.8 20 Sur 35 Sur 0 -- -- 65
2020-11-08 14:00:00 12.4 17 Sur 35 Sur 0 -- -- 62
2020-11-08 13:00:00 11.7 22 Sur 41 Sur 0 -- -- 68
2020-11-08 12:00:00 11.3 24 Sur 42 Sur 0 -- -- 68
2020-11-08 11:00:00 10.7 24 Sur 40 Sur 0 -- -- 72
2020-11-08 10:00:00 11.9 19 Sur 35 Sur 0 -- -- 67
2020-11-08 09:00:00 9.4 13 Sur 23 Sur 0 -- -- 76
2020-11-08 08:00:00 7.8 8 Sur 19 Sur 0 -- -- 83
2020-11-08 07:00:00 8 10 Sur 22 Sur 0 -- -- 81
2020-11-08 06:00:00 7.8 12 Sur 22 Sudeste 0 -- -- 81
2020-11-08 05:00:00 7.6 10 Sur 26 Sur 0 -- -- 79
2020-11-08 04:00:00 7.4 11 Sur 24 Sur 0 -- -- 80
2020-11-08 03:00:00 7.4 9 Sur 19 Sudeste 0 -- -- 82
2020-11-08 02:00:00 7.4 9 Sudeste 21 Sudeste 0 -- -- 85
2020-11-08 01:00:00 7.6 12 Sudeste 20 Sudeste 0 -- -- 88
2020-11-08 00:00:00 7.9 11 Sudeste 18 Sudeste 0 -- -- 88
2020-11-07 23:00:00 7.8 3 Sudeste 11 Sudoeste 0 -- -- 85
2020-11-07 22:00:00 9 5 Oeste 17 Sudoeste 0 -- -- 81
2020-11-07 21:00:00 9.4 9 Sudoeste 17 Sudoeste 0 -- -- 83
2020-11-07 20:00:00 9.1 9 Sudoeste 17 Sudoeste 0 -- -- 84
2020-11-07 19:00:00 8.8 4 Sudeste 9 Sudoeste 0 -- -- 86
2020-11-07 18:00:00 9.6 8 Sudoeste 27 Sudoeste 0 -- -- 85
2020-11-07 17:00:00 10.2 13 Oeste 25 Sudoeste 0 -- -- 85
2020-11-07 16:00:00 9.8 10 Sudoeste 28 Oeste 0.2 -- -- 85
2020-11-07 15:00:00 9.1 13 Sudoeste 26 Sudoeste 2.8 -- -- 92
2020-11-07 14:00:00 8.7 8 Sudoeste 35 Oeste 2.8 -- -- 94
2020-11-07 13:00:00 10.2 13 Oeste 21 Oeste 0.2 -- -- 83
2020-11-07 12:00:00 10.7 7 Sudoeste 28 Sur 0 -- -- 81
2020-11-07 11:00:00 10.5 21 Sur 34 Sur 0 -- -- 77
2020-11-07 10:00:00 10.5 14 Sur 39 Sur 0 -- -- 79
2020-11-07 09:00:00 10.4 13 Sudeste 35 Sudeste 0 -- -- 77
2020-11-07 08:00:00 9.9 9 Sudoeste 31 Sur 0 -- -- 81
2020-11-07 07:00:00 9.9 19 Sur 31 Sur 0 -- -- 82
2020-11-07 06:00:00 9.3 9 Sudeste 20 Sudeste 0 -- -- 84
2020-11-07 05:00:00 9.2 14 Sudeste 31 Sudeste 1.2 -- -- 82
2020-11-07 04:00:00 8.9 6 Sudoeste 31 Sudoeste 1.6 -- -- 86
2020-11-07 03:00:00 9.3 21 Sur 39 Sur 1.6 -- -- 82
2020-11-07 02:00:00 11.4 9 Sudeste 26 Sudeste 0 -- -- 84
2020-11-07 01:00:00 11.5 16 Sudeste 23 Sudeste 0 -- -- 84
2020-11-07 00:00:00 9.8 10 Este 14 Sudeste 0 -- -- 93
2020-11-06 23:00:00 10.3 9 Sudeste 23 Sudeste 0.2 -- -- 93
2020-11-06 22:00:00 10.9 13 Sudeste 17 Sudeste 0.2 -- -- 92
2020-11-06 21:00:00 11.5 9 Sur 43 Este 0.2 -- -- 89
2020-11-06 20:00:00 12.1 20 Este 35 Este 0 -- -- 83
2020-11-06 19:00:00 13.8 17 Sudeste 37 Sudeste 0 -- -- 71
2020-11-06 18:00:00 14.1 22 Sudeste 35 Sudeste 0 -- -- 71
2020-11-06 17:00:00 14.5 19 Este 35 Sudeste 0 -- -- 79
2020-11-06 16:00:00 15.1 28 Sudeste 44 Sudeste 0 -- -- 77
2020-11-06 15:00:00 15 37 Este 51 Este 0 -- -- 78
2020-11-06 14:00:00 15.1 29 Sudeste 47 Sudeste 0 -- -- 76
2020-11-06 13:00:00 13.7 28 Sudeste 50 Sudeste 0 -- -- 80
2020-11-06 12:00:00 13.2 35 Este 49 Este 0 -- -- 79
2020-11-06 11:00:00 12.1 30 Este 42 Este 0 -- -- 82
2020-11-06 10:00:00 8.8 28 Este 43 Sudeste 0 -- -- 93
2020-11-06 09:00:00 10.7 21 Sudeste 35 Sudeste 0 -- -- 82
2020-11-06 08:00:00 10.9 25 Sudeste 61 Sur 0 -- -- 81
2020-11-06 07:00:00 11 33 Sudeste 54 Sudeste 0 -- -- 82
2020-11-06 06:00:00 10.7 35 Sudeste 49 Sudeste 0.2 -- -- 81
2020-11-06 05:00:00 9.3 12 Nordeste 39 Sudeste 0 -- -- 86
2020-11-06 04:00:00 9.8 28 Sudeste 51 Sudeste 0 -- -- 84
2020-11-06 03:00:00 9.7 28 Sudeste 40 Sudeste 0 -- -- 86
2020-11-06 02:00:00 9.6 19 Sudeste 31 Sudeste 0 -- -- 91
2020-11-06 01:00:00 9.1 18 Este 28 Este 0 -- -- 91
2020-11-06 00:00:00 9 17 Este 29 Este 0 -- -- 93
2020-11-05 23:00:00 8.3 18 Este 44 Este 0 -- -- 94
2020-11-05 22:00:00 8.1 35 Este 46 Este 1.2 -- -- 94
2020-11-05 21:00:00 8 27 Este 41 Este 1.8 -- -- 95
2020-11-05 20:00:00 8.2 24 Este 36 Este 1.6 -- -- 95
2020-11-05 19:00:00 8.2 24 Este 42 Este 1 -- -- 95
2020-11-05 18:00:00 8.2 25 Este 44 Este 0.2 -- -- 94
2020-11-05 17:00:00 8.9 27 Este 44 Este 0 -- -- 91
2020-11-05 16:00:00 10 29 Sudeste 48 Este 0 -- -- 88
2020-11-05 15:00:00 9.5 32 Este 48 Este 0 -- -- 87
2020-11-05 14:00:00 9.3 30 Sudeste 46 Este 0 -- -- 87
2020-11-05 13:00:00 8.9 31 Este 47 Este 0 -- -- 87
2020-11-05 12:00:00 8.6 32 Este 55 Este 0 -- -- 87
2020-11-05 11:00:00 7.5 27 Este 42 Sudeste 0 -- -- 92
2020-11-05 10:00:00 6.3 25 Sudeste 42 Este 0 -- -- 95
2020-11-05 09:00:00 5.7 28 Este 45 Sudeste 0 -- -- 95
2020-11-05 08:00:00 5.4 30 Sudeste 48 Este 0 -- -- 95
2020-11-05 07:00:00 5.2 33 Este 48 Este 0 -- -- 97
2020-11-05 06:00:00 5 33 Este 50 Sudeste 0 -- -- 97
2020-11-05 05:00:00 4.8 36 Este 53 Sudeste 0 -- -- 97
2020-11-05 04:00:00 4.8 27 Este 51 Este 0 -- -- 97
2020-11-05 03:00:00 4.3 24 Este 49 Sudeste 0 -- -- 97
2020-11-05 02:00:00 4.2 32 Sudeste 56 Sudeste 0 -- -- 97
2020-11-05 01:00:00 4.1 30 Sudeste 51 Este 0 -- -- 95
2020-11-05 00:00:00 4.2 34 Este 55 Este 0.4 -- -- 94
2020-11-04 23:00:00 4.2 27 Este 45 Este 0.2 -- -- 94
2020-11-04 22:00:00 4 27 Este 42 Este 0 -- -- 94
2020-11-04 21:00:00 3.9 28 Este 46 Este 0 -- -- 94
2020-11-04 20:00:00 4.1 34 Este 45 Este 0 -- -- 89
2020-11-04 19:00:00 4.2 30 Este 43 Este 0 -- -- 89
2020-11-04 18:00:00 4.6 31 Este 46 Este 0 -- -- 86
2020-11-04 17:00:00 5.7 31 Este 45 Este 0 -- -- 82
2020-11-04 16:00:00 6.5 28 Este 40 Este 0 -- -- 79
2020-11-04 15:00:00 6.9 27 Este 37 Este 0 -- -- 79
2020-11-04 14:00:00 7 22 Este 33 Este 0 -- -- 75
2020-11-04 13:00:00 6.3 23 Este 36 Este 0 -- -- 71
2020-11-04 12:00:00 7.1 25 Este 38 Este 0 -- -- 67
2020-11-04 11:00:00 6 21 Este 30 Este 0 -- -- 72
2020-11-04 10:00:00 4 20 Este 28 Este 0 -- -- 82
2020-11-04 09:00:00 3.1 16 Sudeste 22 Sudeste 0 -- -- 86
2020-11-04 08:00:00 2.7 12 Sudeste 18 Sudeste 0 -- -- 89
2020-11-04 07:00:00 2.2 10 Sudeste 21 Este 0 -- -- 91
2020-11-04 06:00:00 3.2 9 Sudeste 17 Este 0 -- -- 89
2020-11-04 05:00:00 3.4 9 Sudeste 16 Sudeste 0 -- -- 91
2020-11-04 04:00:00 3.7 5 Sudeste 8 Este 0 -- -- 93
2020-11-04 03:00:00 3.5 6 Este 12 Sudeste 0 -- -- 94
2020-11-04 02:00:00 4.1 8 Sudeste 13 Este 0 -- -- 92
2020-11-04 01:00:00 4.8 10 Sudeste 15 Sudeste 0 -- -- 91
2020-11-04 00:00:00 5.3 7 Sudeste 14 Este 0 -- -- 91
2020-11-03 23:00:00 6 7 Este 17 Este 0 -- -- 91
2020-11-03 22:00:00 6.2 12 Sudeste 22 Este 0 -- -- 91
2020-11-03 21:00:00 6.5 9 Sudeste 16 Sudeste 0 -- -- 92
2020-11-03 20:00:00 6.7 11 Sudeste 21 Este 0 -- -- 93
2020-11-03 19:00:00 6.7 13 Este 24 Este 0 -- -- 94
2020-11-03 18:00:00 7.1 14 Este 22 Este 0 -- -- 96
2020-11-03 17:00:00 7.7 13 Este 21 Este 0 -- -- 94
2020-11-03 16:00:00 8.1 13 Este 25 Este 0 -- -- 93
2020-11-03 15:00:00 8 18 Este 34 Este 0 -- -- 92
2020-11-03 14:00:00 8.5 18 Este 32 Este 1 -- -- 96
2020-11-03 13:00:00 9.5 4 Oeste 21 Noroeste 1 -- -- 97
2020-11-03 12:00:00 9.7 15 Noroeste 21 Noroeste 0.4 -- -- 96
2020-11-03 11:00:00 10.9 5 Noroeste 9 Noroeste 0 -- -- 96
2020-11-03 10:00:00 10.7 4 Norte 14 Noroeste 0 -- -- 96
2020-11-03 09:00:00 10.9 9 Oeste 13 Oeste 0.2 -- -- 95
2020-11-03 08:00:00 10.8 4 Oeste 21 Oeste 0.4 -- -- 96
2020-11-03 07:00:00 11.1 13 Oeste 22 Oeste 0 -- -- 96
2020-11-03 06:00:00 11.3 18 Oeste 24 Oeste 0 -- -- 93
2020-11-03 05:00:00 11.2 11 Oeste 20 Oeste 0 -- -- 89
2020-11-03 04:00:00 11.6 9 Oeste 20 Oeste 0 -- -- 88
2020-11-03 03:00:00 11.6 13 Oeste 17 Oeste 0 -- -- 87
2020-11-03 02:00:00 11.4 13 Oeste 22 Oeste 0 -- -- 88
2020-11-03 01:00:00 11.6 12 Oeste 19 Oeste 0 -- -- 88
2020-11-03 00:00:00 11.2 8 Sudoeste 11 Sudoeste 0 -- -- 91
2020-11-02 23:00:00 11 5 Oeste 8 Oeste 0 -- -- 91
2020-11-02 22:00:00 11.1 3 Sur 12 Sur 0 -- -- 90
2020-11-02 21:00:00 11.6 0 Calma 4 Sudoeste 0 -- -- 90
2020-11-02 20:00:00 11.6 2 Oeste 5 Noroeste 0 -- -- 89
2020-11-02 19:00:00 12 3 Norte 12 Norte 0 -- -- 86
2020-11-02 18:00:00 13.9 9 Noroeste 14 Noroeste 0 -- -- 77
2020-11-02 17:00:00 15.6 9 Noroeste 15 Noroeste 0 -- -- 71
2020-11-02 16:00:00 16.2 10 Noroeste 23 Oeste 0 -- -- 69
2020-11-02 15:00:00 16.5 14 Oeste 24 Oeste 0 -- -- 67
2020-11-02 14:00:00 15.2 14 Oeste 25 Oeste 0 -- -- 73
2020-11-02 13:00:00 15 18 Oeste 28 Oeste 0 -- -- 76
2020-11-02 12:00:00 15.2 18 Oeste 29 Oeste 0 -- -- 78
2020-11-02 11:00:00 13.4 20 Oeste 31 Oeste 0 -- -- 86
2020-11-02 10:00:00 11.7 20 Oeste 27 Oeste 0 -- -- 94
2020-11-02 09:00:00 11.6 14 Oeste 21 Oeste 0 -- -- 90
2020-11-02 08:00:00 9.5 2 Oeste 10 Sudoeste 0 -- -- 88
2020-11-02 07:00:00 9.6 2 Oeste 10 Sur 0 -- -- 87
2020-11-02 06:00:00 9.8 4 Sur 8 Sudoeste 0 -- -- 84
2020-11-02 05:00:00 9.7 3 Sudoeste 10 Sur 0 -- -- 84
2020-11-02 04:00:00 9.6 2 Sur 5 Este 0 -- -- 84
2020-11-02 03:00:00 9.4 5 Sur 12 Sur 0 -- -- 83
2020-11-02 02:00:00 9.7 6 Sur 12 Sur 0 -- -- 83
2020-11-02 01:00:00 8.1 3 Sudeste 10 Este 0 -- -- 89
2020-11-02 00:00:00 9.1 5 Este 12 Sur 0 -- -- 86
2020-11-01 23:00:00 9 4 Sudeste 9 Sudeste 0 -- -- 86
2020-11-01 22:00:00 10.5 3 Sudeste 8 Sur 0 -- -- 82
2020-11-01 21:00:00 11.2 2 Sudeste 6 Sur 0 -- -- 77
2020-11-01 20:00:00 11.3 4 Sur 9 Sur 0 -- -- 77
2020-11-01 19:00:00 12.9 0 Calma 12 Oeste 0 -- -- 75
2020-11-01 18:00:00 14.3 11 Oeste 16 Noroeste 0 -- -- 67
2020-11-01 17:00:00 17.8 10 Noroeste 18 Noroeste 0 -- -- 55
2020-11-01 16:00:00 17.3 15 Noroeste 23 Noroeste 0 -- -- 56
2020-11-01 15:00:00 18.5 15 Noroeste 22 Noroeste 0 -- -- 52
2020-11-01 14:00:00 17.4 14 Oeste 26 Oeste 0 -- -- 55
2020-11-01 13:00:00 18.1 15 Oeste 24 Oeste 0 -- -- 57
2020-11-01 12:00:00 17.3 13 Oeste 21 Oeste 0 -- -- 62
2020-11-01 11:00:00 16.2 10 Oeste 17 Oeste 0 -- -- 67
2020-11-01 10:00:00 16.6 3 Sur 7 Sur 0 -- -- 60
2020-11-01 09:00:00 10.4 3 Sudeste 8 Este 0 -- -- 82
2020-11-01 08:00:00 7.6 5 Sudoeste 13 Sur 0 -- -- 90
2020-11-01 07:00:00 6.8 12 Sur 15 Sudoeste 0 -- -- 89
2020-11-01 06:00:00 6.8 0 Calma 5 Sur 0 -- -- 92
2020-11-01 05:00:00 7.5 0 Calma 9 Sudoeste 0 -- -- 88
2020-11-01 04:00:00 8.1 4 Sudoeste 8 Sudoeste 0 -- -- 88
2020-11-01 03:00:00 8.4 5 Este 9 Sur 0 -- -- 83
2020-11-01 02:00:00 8.8 6 Sudoeste 14 Sudoeste 0 -- -- 79
2020-11-01 01:00:00 8.7 0 Calma 13 Sudoeste 0 -- -- 82
2020-11-01 00:00:00 9 4 Sudoeste 13 Sudoeste 0 -- -- 83
2020-10-31 23:00:00 8.5 4 Sur 13 Sur 0 -- -- 83
2020-10-31 22:00:00 9.4 12 Sur 14 Sur 0 -- -- 80
2020-10-31 21:00:00 9.8 9 Sudeste 12 Sudeste 0 -- -- 79
2020-10-31 20:00:00 11.4 3 Sudeste 9 Sur 0 -- -- 73
2020-10-31 19:00:00 11.5 3 Oeste 9 Oeste 0 -- -- 75
2020-10-31 18:00:00 13.8 5 Oeste 14 Noroeste 0 -- -- 67
2020-10-31 17:00:00 17 9 Noroeste 26 Oeste 0 -- -- 56
2020-10-31 16:00:00 17.8 22 Oeste 33 Noroeste 0 -- -- 50
2020-10-31 15:00:00 17.5 18 Oeste 35 Oeste 0 -- -- 53
2020-10-31 14:00:00 18 20 Noroeste 28 Oeste 0 -- -- 52
2020-10-31 13:00:00 18.1 17 Oeste 24 Oeste 0 -- -- 49
2020-10-31 12:00:00 16.9 14 Oeste 28 Noroeste 0 -- -- 59
2020-10-31 11:00:00 15.3 17 Oeste 24 Noroeste 0 -- -- 64
2020-10-31 10:00:00 13.1 14 Oeste 19 Oeste 0 -- -- 68
2020-10-31 09:00:00 11.2 4 Sudeste 15 Sur 0 -- -- 69
2020-10-31 08:00:00 8 4 Oeste 9 Oeste 0 -- -- 79
2020-10-31 07:00:00 7.8 5 Sur 10 Sudoeste 0 -- -- 78
2020-10-31 06:00:00 6.8 0 Calma 5 Este 0 -- -- 76
2020-10-31 05:00:00 7.5 2 Este 5 Sudeste 0 -- -- 73
2020-10-31 04:00:00 6.5 7 Este 12 Este 0 -- -- 80
2020-10-31 03:00:00 5.8 7 Este 11 Este 0 -- -- 83
2020-10-31 02:00:00 7.1 3 Sudeste 10 Sudeste 0 -- -- 79
2020-10-31 01:00:00 7.6 5 Sudeste 12 Este 0 -- -- 78
2020-10-31 00:00:00 6.7 3 Este 7 Este 0 -- -- 86
2020-10-30 23:00:00 7.6 4 Sudeste 12 Este 0 -- -- 89
2020-10-30 22:00:00 7.5 7 Este 10 Este 0 -- -- 87
2020-10-30 21:00:00 8.6 9 Este 12 Sudeste 0 -- -- 86
2020-10-30 20:00:00 9.3 7 Este 12 Este 0 -- -- 81
2020-10-30 19:00:00 11.7 0 Calma 5 Norte 0 -- -- 74
2020-10-30 18:00:00 13.7 5 Norte 12 Norte 0 -- -- 68
2020-10-30 17:00:00 16.4 9 Norte 15 Noroeste 0 -- -- 60
2020-10-30 16:00:00 17.7 8 Oeste 15 Oeste 0 -- -- 50
2020-10-30 15:00:00 17 9 Noroeste 17 Noroeste 0 -- -- 52
2020-10-30 14:00:00 16.6 7 Noroeste 18 Noroeste 0 -- -- 54
2020-10-30 13:00:00 16.5 12 Noroeste 19 Oeste 0 -- -- 54
2020-10-30 12:00:00 16.9 10 Noroeste 17 Oeste 0 -- -- 52
2020-10-30 11:00:00 16.1 9 Oeste 13 Oeste 0 -- -- 50
2020-10-30 10:00:00 13.4 5 Sudeste 9 Sur 0 -- -- 56
2020-10-30 09:00:00 10.6 0 Calma 8 Este 0 -- -- 68
2020-10-30 08:00:00 5.3 4 Sur 9 Sudeste 0 -- -- 80
2020-10-30 07:00:00 4.8 3 Este 6 Este 0 -- -- 75
2020-10-30 06:00:00 4.7 2 Sudeste 4 Este 0 -- -- 84
2020-10-30 05:00:00 5 3 Sudeste 6 Este 0 -- -- 85
2020-10-30 04:00:00 5.3 4 Este 9 Este 0 -- -- 80
2020-10-30 03:00:00 4.2 6 Este 9 Este 0 -- -- 83
2020-10-30 02:00:00 4.8 4 Este 9 Este 0 -- -- 79
2020-10-30 01:00:00 5.9 2 Este 4 Este 0 -- -- 83
2020-10-30 00:00:00 5.7 2 Sudeste 8 Sudeste 0 -- -- 87
2020-10-29 23:00:00 6.8 4 Sudeste 8 Sudeste 0 -- -- 85
2020-10-29 22:00:00 8 3 Sudeste 7 Este 0 -- -- 85
2020-10-29 21:00:00 8 0 Calma 8 Este 0 -- -- 85
2020-10-29 20:00:00 10.5 2 Sudeste 9 Este 0 -- -- 74
2020-10-29 19:00:00 10.9 6 Sudeste 8 Sudeste 0 -- -- 74
2020-10-29 18:00:00 13.7 2 Este 11 Norte 0 -- -- 64
2020-10-29 17:00:00 16.1 7 Norte 13 Noroeste 0 -- -- 55
2020-10-29 16:00:00 16.8 11 Noroeste 16 Noroeste 0 -- -- 54
2020-10-29 15:00:00 18.2 3 Sudoeste 8 Sudoeste 0 -- -- 49
2020-10-29 14:00:00 16.5 2 Nordeste 9 Nordeste 0 -- -- 49
2020-10-29 13:00:00 15.8 3 Nordeste 10 Este 0 -- -- 56
2020-10-29 12:00:00 14.9 4 Este 14 Este 0 -- -- 63
2020-10-29 11:00:00 12.9 8 Nordeste 16 Norte 0 -- -- 69
2020-10-29 10:00:00 12.3 5 Este 21 Sudeste 0 -- -- 67
2020-10-29 09:00:00 8.7 11 Sudeste 18 Sudeste 0 -- -- 89
2020-10-29 08:00:00 7.4 4 Sudeste 11 Sur 0 -- -- 93
2020-10-29 07:00:00 7.7 3 Sur 8 Sur 0 -- -- 93
2020-10-29 06:00:00 7.4 3 Este 10 Sur 0 -- -- 95
2020-10-29 05:00:00 7.4 4 Sudoeste 12 Sur 0 -- -- 95
2020-10-29 04:00:00 7.5 8 Sur 13 Sur 0 -- -- 95
2020-10-29 03:00:00 7.8 9 Sur 15 Sur 0 -- -- 95
2020-10-29 02:00:00 8.8 3 Noroeste 9 Sur 0 -- -- 96
2020-10-29 01:00:00 9.2 6 Oeste 17 Oeste 0 -- -- 95
2020-10-29 00:00:00 8.7 8 Oeste 18 Oeste 0 -- -- 95
2020-10-28 23:00:00 8.7 8 Oeste 14 Oeste 0 -- -- 95
2020-10-28 22:00:00 9.7 9 Oeste 13 Oeste 0 -- -- 92
2020-10-28 21:00:00 10.1 10 Oeste 13 Oeste 0 -- -- 93
2020-10-28 20:00:00 9.5 7 Oeste 16 Oeste 0 -- -- 93
2020-10-28 19:00:00 10.4 10 Oeste 18 Oeste 0 -- -- 91
2020-10-28 18:00:00 12 13 Oeste 24 Oeste 0 -- -- 85
2020-10-28 17:00:00 13.1 19 Oeste 32 Oeste 0 -- -- 81
2020-10-28 16:00:00 13.9 19 Oeste 30 Oeste 0 -- -- 80
2020-10-28 15:00:00 13.9 22 Oeste 33 Oeste 0 -- -- 82
2020-10-28 14:00:00 13.4 21 Oeste 30 Oeste 0 -- -- 87
2020-10-28 13:00:00 14.2 17 Oeste 31 Oeste 0 -- -- 82
2020-10-28 12:00:00 12.5 19 Oeste 29 Oeste 0 -- -- 93
2020-10-28 11:00:00 11.1 17 Oeste 26 Sudoeste 0 -- -- 97
2020-10-28 10:00:00 10.2 17 Oeste 32 Oeste 0 -- -- 97
2020-10-28 09:00:00 9.7 24 Oeste 40 Oeste 0 -- -- 96
2020-10-28 08:00:00 9.9 27 Oeste 41 Oeste 0 -- -- 95
2020-10-28 07:00:00 9.9 21 Oeste 32 Oeste 0 -- -- 96
2020-10-28 06:00:00 9.7 20 Oeste 32 Oeste 0 -- -- 94
2020-10-28 05:00:00 9.6 19 Oeste 27 Oeste 0 -- -- 93
2020-10-28 04:00:00 9.2 16 Oeste 30 Oeste 0 -- -- 93
2020-10-28 03:00:00 9.4 21 Oeste 30 Oeste 0 -- -- 89
2020-10-28 02:00:00 9.2 23 Oeste 33 Oeste 0 -- -- 87
2020-10-28 01:00:00 9.2 16 Oeste 28 Oeste 0 -- -- 84
2020-10-28 00:00:00 9 20 Oeste 30 Oeste 0 -- -- 84